Flight Track Log - Related Links

Times and Time Zones

All times are in EST time to prevent confusion due to time zone crossing. See the AVN10 flight status page for this flight to view local times or setup timezone preferences in your user account.

Time Position Orientation Groundspeed Altitude Reporting Facility
EST Latitude Longitude Course Direction KTS MPH feet Rate Location/Type
Sun 03:02:00 PM -18.0097 168.1616 206° Southwest  Level FlightAware Approximate
Sun 03:03:00 PM -18.1132 168.1088 206° Southwest  Level FlightAware Approximate
Sun 03:04:00 PM -18.2166 168.0559 206° Southwest  Level FlightAware Approximate
Sun 03:05:00 PM -18.3200 168.0029 206° Southwest  Level FlightAware Approximate
Sun 03:06:00 PM -18.4234 167.9499 206° Southwest  Level FlightAware Approximate
Sun 03:07:00 PM -18.5106 167.8709 204° Southwest  Level Estimated
Sun 03:08:00 PM -18.6159 167.8221 204° Southwest  Level FlightAware Approximate
Sun 03:09:00 PM -18.7212 167.7732 204° Southwest  Level FlightAware Approximate
Sun 03:10:00 PM -18.8264 167.7242 204° Southwest  Level FlightAware Approximate
Sun 03:11:00 PM -18.9316 167.6752 204° Southwest  Level FlightAware Approximate
Sun 03:12:00 PM -19.0368 167.6261 204° Southwest  Level FlightAware Approximate
Sun 03:13:00 PM -19.1420 167.5770 204° Southwest  Level FlightAware Approximate
Sun 03:14:00 PM -19.2472 167.5278 204° Southwest  Level FlightAware Approximate
Sun 03:15:00 PM -19.3524 167.4786 204° Southwest  Level FlightAware Approximate
Sun 03:16:00 PM -19.4576 167.4292 204° Southwest  Level FlightAware Approximate
Sun 03:17:00 PM -19.5627 167.3799 204° Southwest  Level FlightAware Approximate
Sun 03:18:00 PM -19.6679 167.3304 204° Southwest  Level FlightAware Approximate
Sun 03:19:00 PM -19.7730 167.2809 204° Southwest  Level FlightAware Approximate
Sun 03:20:00 PM -19.8781 167.2313 204° Southwest  Level FlightAware Approximate
Sun 03:21:00 PM -19.9832 167.1817 204° Southwest  Level FlightAware Approximate
Sun 03:22:00 PM -20.0883 167.1320 204° Southwest  Level FlightAware Approximate
Sun 03:23:00 PM -20.1934 167.0822 204° Southwest  Level FlightAware Approximate
Sun 03:24:00 PM -20.2984 167.0323 204° Southwest  Level FlightAware Approximate
Sun 03:25:00 PM -20.4035 166.9824 204° Southwest  Level FlightAware Approximate
Sun 03:26:00 PM -20.5085 166.9325 204° Southwest  Level FlightAware Approximate
Sun 03:26:04 PM -20.3720 166.9870 204° Southwest 415 478 38,000  Level FlightAware ADS-B
Sun 03:26:37 PM -20.4310 166.9590 204° Southwest 414 476 38,000  Level FlightAware ADS-B
Sun 03:27:00 PM -20.6135 166.8824 204° Southwest  Level FlightAware Approximate
Sun 03:27:10 PM -20.4880 166.9320 204° Southwest 414 476 38,000  Level FlightAware ADS-B
Sun 03:27:48 PM -20.5550 166.9010 203° Southwest 414 476 38,000  Level FlightAware ADS-B
Sun 03:28:24 PM -20.6200 166.8700 204° Southwest 415 478 38,000  Level FlightAware ADS-B
Sun 03:28:55 PM -20.6730 166.8460 203° Southwest 415 478 38,000  Level FlightAware ADS-B
Sun 03:29:37 PM -20.7470 166.8110 204° Southwest 414 476 38,000  Level FlightAware ADS-B
Sun 03:30:10 PM -20.8030 166.7840 204° Southwest 415 478 38,000  Level FlightAware ADS-B
Sun 03:30:47 PM -20.8710 166.7520 204° Southwest 416 479 38,000  Level FlightAware ADS-B
Sun 03:31:58 PM -20.9940 166.6940 204° Southwest 416 479 38,000  Level FlightAware ADS-B
Sun 03:32:24 PM -21.0410 166.6710 205° Southwest 416 479 38,000  Level FlightAware ADS-B
Sun 03:33:05 PM -21.1140 166.6370 203° Southwest 417 480 38,000  Level FlightAware ADS-B
Sun 03:33:41 PM -21.1770 166.6070 204° Southwest 419 482 38,000  Level FlightAware ADS-B
Sun 03:34:19 PM -21.2460 166.5750 203° Southwest 420 483 38,000  Level FlightAware ADS-B
Sun 03:34:55 PM -21.3110 166.5440 204° Southwest 420 483 38,000  Level FlightAware ADS-B
Sun 03:35:31 PM -21.3740 166.5140 204° Southwest 422 486 38,000  Level FlightAware ADS-B
Sun 03:36:03 PM -21.4310 166.4860 205° Southwest 423 487 38,000  Level FlightAware ADS-B
Sun 03:36:43 PM -21.5040 166.4510 204° Southwest 424 488 38,000  Level FlightAware ADS-B
Sun 03:37:05 PM -21.5430 166.4330 203° Southwest 423 487 38,000  Level FlightAware ADS-B
Sun 03:38:07 PM -21.6550 166.3800 204° Southwest 424 488 38,000  Level FlightAware ADS-B
Sun 03:38:58 PM -21.7460 166.3360 204° Southwest 424 488 38,000  Level FlightAware ADS-B
Sun 03:39:32 PM -21.8070 166.3070 204° Southwest 423 487 38,000  Level FlightAware ADS-B
Sun 03:40:12 PM -21.8780 166.2730 204° Southwest 423 487 38,000  Level FlightAware ADS-B
Sun 03:40:48 PM -21.9420 166.2420 204° Southwest 422 486 38,000  Level FlightAware ADS-B
Sun 03:41:18 PM -21.9950 166.2140 206° Southwest 417 480 38,000  Level FlightAware ADS-B
Sun 03:41:46 PM -22.0360 166.1790 218° Southwest 410 472 38,000  Level FlightAware ADS-B
Sun 03:42:18 PM -22.0810 166.1330 223° Southwest 411 473 38,000  Level FlightAware ADS-B
Sun 03:42:56 PM -22.1330 166.0780 224° Southwest 412 474 38,000  Level FlightAware ADS-B
Sun 03:43:32 PM -22.1830 166.0250 224° Southwest 414 476 38,000  Level FlightAware ADS-B
Sun 03:44:14 PM -22.2400 165.9660 224° Southwest 415 478 38,000  Level FlightAware ADS-B
Sun 03:44:40 PM -22.2760 165.9280 224° Southwest 416 479 38,000  Level FlightAware ADS-B
Sun 03:45:10 PM -22.3190 165.8830 224° Southwest 417 480 38,000  Level FlightAware ADS-B
Sun 03:45:49 PM -22.3710 165.8280 224° Southwest 417 480 38,000  Level FlightAware ADS-B
Sun 03:46:26 PM -22.4220 165.7740 224° Southwest 420 483 38,000  Level FlightAware ADS-B
Sun 03:47:11 PM -22.4860 165.7070 224° Southwest 420 483 38,000  Level FlightAware ADS-B
Sun 03:47:49 PM -22.5360 165.6540 224° Southwest 420 483 38,000  Level FlightAware ADS-B
Sun 03:48:56 PM -22.6310 165.5540 224° Southwest 421 484 38,000  Level FlightAware ADS-B
Sun 03:49:30 PM -22.6790 165.5040 224° Southwest 422 486 38,000  Level FlightAware ADS-B
Sun 03:50:05 PM -22.7270 165.4520 225° Southwest 421 484 38,000  Level FlightAware ADS-B
Sun 03:50:39 PM -22.7760 165.4000 224° Southwest 421 484 38,000  Level FlightAware ADS-B
Sun 03:51:15 PM -22.8260 165.3470 224° Southwest 420 483 38,000  Level FlightAware ADS-B
Sun 03:52:16 PM -22.9100 165.2570 225° Southwest 422 486 38,000  Level FlightAware ADS-B
Sun 03:52:50 PM -22.9580 165.2060 224° Southwest 421 484 38,000  Level FlightAware ADS-B
Sun 03:53:18 PM -22.9970 165.1640 225° Southwest 422 486 38,000  Level FlightAware ADS-B
Sun 03:53:52 PM -23.0450 165.1140 224° Southwest 422 486 38,000  Level FlightAware ADS-B
Sun 03:54:34 PM -23.1030 165.0520 225° Southwest 420 483 38,000  Level FlightAware ADS-B
Sun 03:55:48 PM -23.2060 164.9420 224° Southwest 420 483 38,000  Level FlightAware ADS-B
Sun 03:56:23 PM -23.2540 164.8900 225° Southwest 421 484 38,000  Level FlightAware ADS-B
Sun 03:56:52 PM -23.2930 164.8480 225° Southwest 422 486 38,000  Level FlightAware ADS-B
Sun 03:57:29 PM -23.3450 164.7920 225° Southwest 424 488 38,000  Level FlightAware ADS-B
Sun 03:58:02 PM -23.3880 164.7450 225° Southwest 424 488 38,000  Level FlightAware ADS-B
Sun 03:58:45 PM -23.4500 164.6790 224° Southwest 427 491 38,000  Level FlightAware ADS-B
Sun 03:59:19 PM -23.5000 164.6250 225° Southwest 427 491 38,000  Level FlightAware ADS-B
Sun 04:00:01 PM -23.5580 164.5620 225° Southwest 429 494 38,000  Level FlightAware ADS-B
Sun 04:01:09 PM -23.6440 164.4700 224° Southwest 429 494 38,000  Level FlightAware ADS-B
Sun 04:01:45 PM -23.6880 164.4240 224° Southwest 429 494 38,000  Level FlightAware ADS-B
Sun 04:02:12 PM -23.7210 164.3900 223° Southwest 429 494 38,000  Level FlightAware ADS-B
Sun 04:02:49 PM -23.7660 164.3420 224° Southwest 429 494 38,000  Level FlightAware ADS-B
Sun 04:03:35 PM -23.8220 164.2830 224° Southwest 429 494 38,000  Level FlightAware ADS-B
Sun 04:04:12 PM -23.8670 164.2360 224° Southwest 429 494 38,000  Level FlightAware ADS-B
Sun 04:04:46 PM -23.9080 164.1920 224° Southwest 429 494 38,000  Level FlightAware ADS-B
Sun 04:05:23 PM -23.9530 164.1450 224° Southwest 429 494 38,000  Level FlightAware ADS-B
Sun 04:05:47 PM -23.9820 164.1140 224° Southwest 429 494 38,000  Level FlightAware ADS-B
Sun 04:06:35 PM -24.0400 164.0530 224° Southwest 429 494 38,000  Level FlightAware ADS-B
Sun 04:07:35 PM -24.1130 163.9760 224° Southwest 429 494 38,000  Level FlightAware ADS-B
Sun 04:08:11 PM -24.1570 163.9290 224° Southwest 429 494 38,000  Level FlightAware ADS-B
Sun 04:09:11 PM -24.2290 163.8520 224° Southwest 429 494 38,000  Level FlightAware ADS-B
Sun 04:09:35 PM -24.2580 163.8210 224° Southwest 429 494 38,000  Level FlightAware ADS-B
Sun 04:10:13 PM -24.3050 163.7730 223° Southwest 429 494 38,000 Level FlightAware ADS-B
Sun 04:12:37 PM -24.5857 163.4370 222° Southwest 38,000 Level Aus ATC (Calculated)
Sun 04:13:00 PM -24.5271 163.5200 226° Southwest  Level FlightAware Approximate
Sun 04:13:07 PM -24.6440 163.3724 222° Southwest 38,000  Level Aus ATC (Calculated)
Sun 04:15:00 PM -24.7879 163.2132 225° Southwest  Level FlightAware Approximate
Sun 04:16:00 PM -24.8642 163.1285 225° Southwest  Level FlightAware Approximate
Sun 04:16:07 PM -24.9304 163.0533 222° Southwest 38,000  Level Aus ATC (Calculated)
Sun 04:17:52 PM -25.0885 162.8763 222° Southwest 38,000 Level Aus ATC (Calculated)
Sun 04:18:00 PM -25.0762 162.8959 224° Southwest  Level FlightAware Approximate
Sun 04:19:00 PM -25.0018 162.9750 46° Northeast  Level FlightAware Approximate
Sun 04:20:00 PM -25.0478 162.9239 225° Southwest  Level FlightAware Approximate
Sun 04:21:00 PM -25.1248 162.8374 225° Southwest  Level FlightAware Approximate
Sun 04:22:00 PM -25.2019 162.7507 225° Southwest  Level FlightAware Approximate
Sun 04:23:00 PM -25.2789 162.6640 226° Southwest  Level FlightAware Approximate
Sun 04:24:00 PM -25.3558 162.5771 226° Southwest  Level FlightAware Approximate
Sun 04:25:00 PM -25.4327 162.4901 226° Southwest  Level FlightAware Approximate
Sun 04:26:00 PM -25.5095 162.4031 226° Southwest  Level FlightAware Approximate
Sun 04:27:00 PM -25.5863 162.3159 226° Southwest  Level FlightAware Approximate
Sun 04:28:00 PM -25.6630 162.2286 226° Southwest  Level FlightAware Approximate
Sun 04:29:00 PM -25.7397 162.1412 226° Southwest  Level FlightAware Approximate
Sun 04:30:00 PM -25.8163 162.0536 226° Southwest  Level FlightAware Approximate
Sun 04:31:00 PM -25.8928 161.9660 226° Southwest  Level FlightAware Approximate
Sun 04:32:00 PM -25.9694 161.8783 226° Southwest  Level FlightAware Approximate
Sun 04:33:00 PM -26.0458 161.7904 226° Southwest  Level FlightAware Approximate
Sun 04:34:00 PM -26.1222 161.7024 226° Southwest  Level FlightAware Approximate
Sun 04:35:00 PM -26.1986 161.6143 226° Southwest  Level FlightAware Approximate
Sun 04:36:00 PM -26.2749 161.5261 226° Southwest  Level FlightAware Approximate
Sun 04:37:00 PM -26.3511 161.4378 226° Southwest  Level FlightAware Approximate
Sun 04:38:00 PM -26.4273 161.3493 226° Southwest  Level FlightAware Approximate
Sun 04:38:18 PM -27.0294 160.6432 220° Southwest 38,000  Level Aus ATC (Calculated)
Sun 04:40:00 PM -27.1580 160.4910 226° Southwest  Level FlightAware Approximate
Sun 04:40:18 PM -27.2218 160.4155 220° Southwest 38,000  Level Aus ATC (Calculated)
Sun 04:42:00 PM -27.3502 160.2627 227° Southwest  Level FlightAware Approximate
Sun 04:42:18 PM -27.4162 160.1840 219° Southwest 38,000  Level Aus ATC (Calculated)
Sun 04:44:00 PM -27.5444 160.0308 227° Southwest  Level FlightAware Approximate
Sun 04:45:00 PM -27.6197 159.9405 227° Southwest  Level FlightAware Approximate
Sun 04:45:06 PM -27.6789 159.8694 218° Southwest 38,000  Level Aus ATC (Calculated)
Sun 04:45:45 PM -27.7510 159.7826 218° Southwest 38,000 Level Aus ATC (Calculated)
Sun 04:47:00 PM -27.8449 159.6692 227° Southwest  Level FlightAware Approximate
Sun 04:48:00 PM -27.9200 159.5784 227° Southwest  Level FlightAware Approximate
Sun 04:49:00 PM -27.9951 159.4875 227° Southwest  Level FlightAware Approximate
Sun 04:50:00 PM -28.0700 159.3964 227° Southwest  Level FlightAware Approximate
Sun 04:50:40 PM -28.2542 159.1718 215° Southwest 38,000  Level Aus ATC (Calculated)
Sun 04:52:00 PM -28.1111 159.1361 348° North  Level FlightAware Approximate
Sun 04:53:00 PM -28.2184 159.1629 168° South  Level FlightAware Approximate
Sun 04:54:00 PM -28.3258 159.1897 168° South  Level FlightAware Approximate
Sun 04:54:42 PM -28.5804 158.7708 211° Southwest 38,000  Level Aus ATC (Calculated)
Sun 04:54:45 PM -28.5804 158.7708 211° Southwest 38,000 11 Level Aus ATC (Calculated)
Sun 04:56:00 PM -28.4824 158.8916 47° Northeast  Level FlightAware Approximate
Sun 04:57:00 PM -28.4039 158.9882 47° Northeast  Level FlightAware Approximate
Sun 04:58:00 PM -28.3254 159.0846 47° Northeast  Level FlightAware Approximate
Sun 04:59:00 PM -28.2468 159.1808 47° Northeast  Level FlightAware Approximate
Sun 04:59:39 PM -28.9863 158.2659 200° South 38,000  Level Aus ATC (Calculated)
Sun 05:00:00 PM -28.3254 159.0846 227° Southwest  Level FlightAware Approximate
Sun 05:01:00 PM -28.8810 158.3975 48° Northeast  Level FlightAware Approximate
Sun 05:02:00 PM -28.8029 158.4948 48° Northeast  Level FlightAware Approximate
Sun 05:03:00 PM -28.7247 158.5919 47° Northeast  Level FlightAware Approximate
Sun 05:04:00 PM -28.6465 158.6889 47° Northeast  Level FlightAware Approximate
Sun 05:04:39 PM -29.3904 157.7572 160° South 38,000  Level Aus ATC (Calculated)
Sun 05:05:00 PM -28.7230 158.5901 227° Southwest  Level Estimated
Sun 05:06:00 PM -29.4951 157.6243 228° Southwest  Level FlightAware Approximate
Sun 05:07:00 PM -29.5725 157.5258 228° Southwest  Level FlightAware Approximate
Sun 05:08:00 PM -29.6499 157.4270 228° Southwest  Level FlightAware Approximate
Sun 05:09:00 PM -29.7272 157.3281 228° Southwest  Level FlightAware Approximate
Sun 05:09:43 PM -29.8325 157.1930 87° East 38,000  Level Aus ATC (Calculated)
Sun 05:10:00 PM -29.8045 157.2290 228° Southwest  Level FlightAware Approximate
Sun 05:11:00 PM -29.9315 157.0656 228° Southwest  Level FlightAware Approximate
Sun 05:12:00 PM -30.0086 156.9661 228° Southwest  Level FlightAware Approximate
Sun 05:13:00 PM -30.0855 156.8665 228° Southwest  Level FlightAware Approximate
Sun 05:13:06 PM -30.1126 156.8314 72° East 38,000  Level Aus ATC (Calculated)
Sun 05:13:43 PM -29.7992 157.9262 228° Southwest 439 505 38,200 169 Climbing Aus ATC (RADAR)
Sun 05:14:17 PM -29.8574 157.8764 217° Southwest 448 516 38,200  Level Aus ATC (RADAR)
Sun 05:15:08 PM -29.9348 157.8082 217° Southwest 432 497 38,200  Level Aus ATC (RADAR)
Sun 05:15:42 PM -29.9890 157.7603 217° Southwest 427 491 38,200  Level Aus ATC (RADAR)
Sun 05:16:38 PM -30.0740 157.6847 218° Southwest 424 488 38,200  Level Aus ATC (RADAR)
Sun 05:16:52 PM -30.0971 157.6643 217° Southwest 423 487 38,200  Level Aus ATC (RADAR)
Sun 05:18:17 PM -30.2285 157.5473 218° Southwest 421 484 38,200  Level Aus ATC (RADAR)
Sun 05:18:47 PM -30.2754 157.5059 217° Southwest 422 486 38,200  Level Aus ATC (RADAR)
Sun 05:19:02 PM -30.2982 157.4854 218° Southwest 422 486 38,200  Level Aus ATC (RADAR)
Sun 05:19:37 PM -30.3534 157.4364 217° Southwest 423 487 38,200  Level Aus ATC (RADAR)
Sun 05:20:27 PM -30.4310 157.3670 218° Southwest 424 488 38,200  Level Aus ATC (RADAR)
Sun 05:21:02 PM -30.4851 157.3185 218° Southwest 423 487 38,200  Level Aus ATC (RADAR)
Sun 05:21:52 PM -30.5652 157.2468 218° Southwest 429 494 38,200  Level Aus ATC (RADAR)
Sun 05:22:17 PM -30.6045 157.2116 218° Southwest 430 495 38,200  Level Aus ATC (RADAR)
Sun 05:23:21 PM -30.7018 157.1241 218° Southwest 419 482 38,200  Level Aus ATC (RADAR)
Sun 05:23:46 PM -30.7402 157.0897 218° Southwest 415 478 38,200 -100 Level Aus ATC (RADAR)
Sun 05:24:21 PM -30.7950 157.0402 218° Southwest 424 488 38,100  Descending Aus ATC (RADAR)
Sun 05:25:12 PM -30.8728 156.9704 218° Southwest 425 489 38,200 71 Climbing Aus ATC (RADAR)
Sun 05:25:46 PM -30.9274 156.9212 218° Southwest 425 489 38,200  Level Aus ATC (RADAR)
Sun 05:26:31 PM -30.9976 156.8579 218° Southwest 426 490 38,200 -86 Level Aus ATC (RADAR)
Sun 05:26:56 PM -31.0364 156.8227 218° Southwest 426 490 38,100  Descending Aus ATC (RADAR)
Sun 05:27:31 PM -31.0904 156.7736 218° Southwest 424 488 38,200  Climbing Aus ATC (RADAR)
Sun 05:28:41 PM -31.1992 156.6749 218° Southwest 425 489 38,100  Descending Aus ATC (RADAR)
Sun 05:29:06 PM -31.2381 156.6398 218° Southwest 426 490 38,200  Climbing Aus ATC (RADAR)
Sun 05:29:41 PM -31.2924 156.5901 218° Southwest 426 490 38,100  Descending Aus ATC (RADAR)
Sun 05:30:26 PM -31.3627 156.5261 218° Southwest 428 493 38,200 75 Climbing Aus ATC (RADAR)
Sun 05:31:01 PM -31.4175 156.4761 218° Southwest 429 494 38,200  Level Aus ATC (RADAR)
Sun 05:31:56 PM -31.5038 156.3971 218° Southwest 431 496 38,200  Level Aus ATC (RADAR)
Sun 05:32:10 PM -31.5271 156.3756 218° Southwest 430 495 38,200  Level Aus ATC (RADAR)
Sun 05:32:45 PM -31.5822 156.3249 218° Southwest 432 497 38,200 -100 Level Aus ATC (RADAR)
Sun 05:34:10 PM -31.7152 156.2025 218° Southwest 431 496 38,000 -109 Descending Aus ATC (RADAR)
Sun 05:34:35 PM -31.7544 156.1666 218° Southwest 431 496 38,000  Level Aus ATC (RADAR)
Sun 05:35:10 PM -31.8091 156.1157 218° Southwest 431 496 38,000  Level Aus ATC (RADAR)
Sun 05:35:55 PM -31.8794 156.0505 218° Southwest 431 496 38,000  Level Aus ATC (RADAR)
Sun 05:36:30 PM -31.9341 155.9996 218° Southwest 431 496 38,000  Level Aus ATC (RADAR)
Sun 05:37:15 PM -32.0043 155.9344 218° Southwest 431 496 38,000  Level Aus ATC (RADAR)
Sun 05:37:45 PM -32.0516 155.8904 218° Southwest 431 496 38,000  Level Aus ATC (RADAR)
Sun 05:38:55 PM -32.1619 155.7876 218° Southwest 434 499 38,000  Level Aus ATC (RADAR)
Sun 05:39:01 PM -32.1650 155.7840 218° Southwest 433 498 38,000  Level FlightAware ADS-B
Sun 05:39:20 PM -32.2014 155.7507 218° Southwest 434 499 38,000  Level Aus ATC (RADAR)
Sun 05:39:33 PM -32.2160 155.7370 218° Southwest 434 499 38,000  Level FlightAware ADS-B
Sun 05:40:26 PM -32.3000 155.6590 218° Southwest 434 499 38,000  Level FlightAware ADS-B
Sun 05:41:19 PM -32.3889 155.5750 218° Southwest 433 498 38,000  Level Aus ATC (RADAR)
Sun 05:41:20 PM -32.3840 155.5790 218° Southwest 432 497 38,000  Level FlightAware ADS-B
Sun 05:41:59 PM -32.4515 155.5160 218° Southwest 433 498 38,000  Level Aus ATC (RADAR)
Sun 05:42:10 PM -32.4620 155.5060 218° Southwest 432 497 38,000  Level FlightAware ADS-B
Sun 05:42:24 PM -32.4904 155.4793 218° Southwest 433 498 38,000  Level Aus ATC (RADAR)
Sun 05:42:47 PM -32.5190 155.4520 219° Southwest 432 497 38,000  Level FlightAware ADS-B
Sun 05:43:50 PM -32.6140 155.3630 218° Southwest 432 497 38,000  Level FlightAware ADS-B
Sun 05:44:19 PM -32.6660 155.3140 218° Southwest 434 499 38,000  Level FlightAware ADS-B
Sun 05:45:09 PM -32.7486 155.2352 218° Southwest 434 499 38,000  Level Aus ATC (RADAR)
Sun 05:45:12 PM -32.7450 155.2380 218° Southwest 436 502 38,000  Level FlightAware ADS-B
Sun 05:45:54 PM -32.8192 155.1686 218° Southwest 436 502 38,000  Level Aus ATC (RADAR)
Sun 05:46:01 PM -32.8210 155.1670 218° Southwest 437 503 38,000  Level FlightAware ADS-B
Sun 05:46:34 PM -32.8819 155.1086 218° Southwest 436 502 38,000  Level Aus ATC (RADAR)
Sun 05:46:47 PM -32.8960 155.0940 218° Southwest 437 503 38,000  Level FlightAware ADS-B
Sun 05:47:24 PM -32.9603 155.0329 218° Southwest 438 504 38,000  Level Aus ATC (RADAR)
Sun 05:47:34 PM -32.9590 155.0340 218° Southwest 437 503 38,000  Level FlightAware ADS-B
Sun 05:48:29 PM -33.0550 154.9420 219° Southwest 440 506 38,000  Level FlightAware ADS-B
Sun 05:49:09 PM -33.1273 154.8741 219° Southwest 443 510 38,000  Level Aus ATC (RADAR)
Sun 05:49:11 PM -33.1210 154.8790 219° Southwest 442 509 38,000  Level FlightAware ADS-B
Sun 05:49:56 PM -33.2000 154.8040 219° Southwest 464 534 38,000  Level FlightAware ADS-B
Sun 05:49:58 PM -33.2074 154.7974 219° Southwest 445 512 38,000 128 Level Aus ATC (RADAR)
Sun 05:50:43 PM -33.2789 154.7278 219° Southwest 444 511 38,100  Climbing Aus ATC (RADAR)
Sun 05:50:54 PM -33.2880 154.7180 219° Southwest 445 512 38,000 -90 Descending FlightAware ADS-B
Sun 05:51:50 PM -33.3720 154.6370 219° Southwest 445 512 38,000  Level FlightAware ADS-B
Sun 05:52:22 PM -33.4290 154.5820 219° Southwest 445 512 38,000 140 Level FlightAware ADS-B
Sun 05:52:33 PM -33.4544 154.5579 219° Southwest 444 511 38,100 130 Climbing Aus ATC (RADAR)
Sun 05:53:08 PM -33.5098 154.5034 219° Southwest 443 510 38,100 -122 Level Aus ATC (RADAR)
Sun 05:53:22 PM -33.5260 154.4870 219° Southwest 444 511 38,000 -100 Descending FlightAware ADS-B
Sun 05:54:08 PM -33.5950 154.4200 219° Southwest 445 512 38,000 70 Level FlightAware ADS-B
Sun 05:54:48 PM -33.6694 154.3481 219° Southwest 447 514 38,100  Climbing Aus ATC (RADAR)
Sun 05:55:01 PM -33.6830 154.3340 219° Southwest 447 514 38,000 -105 Descending FlightAware ADS-B
Sun 05:55:45 PM -33.7550 154.2650 219° Southwest 445 512 38,000  Level FlightAware ADS-B
Sun 05:56:29 PM -33.8260 154.1950 219° Southwest 444 511 38,000  Level FlightAware ADS-B
Sun 05:57:15 PM -33.8930 154.1200 219° Southwest 430 495 38,000 113 Level FlightAware ADS-B
Sun 05:57:22 PM -33.9066 154.0983 219° Southwest 446 513 38,100  Climbing Aus ATC (RADAR)
Sun 05:57:50 PM -33.9160 154.0420 219° Southwest 407 468 38,000  Descending FlightAware ADS-B
Sun 05:57:58 PM -33.9215 154.0181 219° Southwest 427 491 38,100  Climbing Aus ATC (RADAR)
Sun 05:58:20 PM -33.9240 153.9770 262° West 404 465 38,000 -103 Descending FlightAware ADS-B
Sun 05:58:56 PM -33.9330 153.8960 262° West 403 464 38,000  Level FlightAware ADS-B
Sun 05:59:24 PM -33.9400 153.8380 262° West 402 463 38,000 162 Level FlightAware ADS-B
Sun 05:59:33 PM -33.9439 153.8082 262° West 398 458 38,100 182 Climbing Aus ATC (RADAR)
Sun 05:59:57 PM -33.9495 153.7528 262° West 397 457 38,100 -158 Level Aus ATC (RADAR)
Sun 06:00:11 PM -33.9530 153.7280 262° West 402 463 38,000 -128 Descending FlightAware ADS-B
Sun 06:00:44 PM -33.9610 153.6610 262° West 401 461 38,000 91 Level FlightAware ADS-B
Sun 06:01:17 PM -33.9704 153.5762 262° West 395 455 38,100  Climbing Aus ATC (RADAR)
Sun 06:01:31 PM -33.9730 153.5490 262° West 403 464 38,000 -105 Descending FlightAware ADS-B
Sun 06:02:14 PM -33.9840 153.4580 262° West 406 467 38,000  Level FlightAware ADS-B
Sun 06:02:45 PM -33.9920 153.3900 262° West 410 472 38,000 -435 Level FlightAware ADS-B
Sun 06:03:23 PM -34.0010 153.3040 263° West 398 458 37,500 -1,814 Descending FlightAware ADS-B
Sun 06:04:11 PM -34.0130 153.1990 263° West 397 457 35,400 -2,644 Descending FlightAware ADS-B
Sun 06:04:22 PM -34.0167 153.1675 263° West 391 450 34,900 -3,086 Descending Aus ATC (RADAR)
Sun 06:04:46 PM -34.0220 153.1180 263° West 407 468 33,600 -3,120 Descending FlightAware ADS-B
Sun 06:04:47 PM -34.0234 153.1102 263° West 402 463 33,600 -2,222 Level Aus ATC (RADAR)
Sun 06:05:40 PM -34.0350 153.0000 263° West 416 479 31,600 -2,250 Descending FlightAware ADS-B
Sun 06:05:51 PM -34.0388 152.9635 263° West 407 468 31,200 -2,133 Descending Aus ATC (RADAR)
Sun 06:06:25 PM -34.0460 152.8970 263° West 409 471 30,000 -2,087 Descending FlightAware ADS-B
Sun 06:06:37 PM -34.0514 152.8599 263° West 407 468 29,600 -2,118 Descending Aus ATC (RADAR)
Sun 06:06:59 PM -34.0550 152.8190 262° West 397 457 28,800 -2,113 Descending FlightAware ADS-B
Sun 06:07:48 PM -34.0670 152.7100 262° West 385 443 27,100 -1,966 Descending FlightAware ADS-B
Sun 06:07:57 PM -34.0702 152.6876 262° West 384 442 26,900 -1,941 Descending Aus ATC (RADAR)
Sun 06:08:22 PM -34.0756 152.6341 262° West 386 444 26,000 -2,100 Descending Aus ATC (RADAR)
Sun 06:08:37 PM -34.0770 152.6110 262° West 383 441 25,500 -1,969 Descending FlightAware ADS-B
Sun 06:09:26 PM -34.0782 152.4988 262° West 370 426 23,900 -2,000 Descending Aus ATC (RADAR)
Sun 06:09:34 PM -34.0750 152.4940 262° West 365 420 23,600 -2,432 Descending FlightAware ADS-B
Sun 06:10:03 PM -34.0690 152.4258 276° West 360 414 22,400 -2,300 Descending FlightAware ADS-B
Sun 06:10:34 PM -34.0633 152.3655 276° West 360 414 21,300 -2,197 Descending FlightAware ADS-B
Sun 06:11:14 PM -34.0558 152.2849 276° West 361 415 19,800 -2,055 Descending FlightAware ADS-B
Sun 06:11:47 PM -34.0495 152.2199 277° West 363 418 18,800 -2,273 Descending FlightAware ADS-B
Sun 06:12:20 PM -34.0430 152.1525 277° West 361 415 17,300 -2,027 Descending FlightAware ADS-B
Sun 06:13:01 PM -34.0350 152.0712 277° West 355 409 16,300 -1,529 Descending Aus ATC (RADAR)
Sun 06:13:11 PM -34.0340 152.0600 277° West 355 409 16,000 -2,455 Descending FlightAware ADS-B
Sun 06:13:23 PM -34.0309 152.0289 277° West 353 406 15,400 -2,091 Descending FlightAware ADS-B
Sun 06:14:17 PM -34.0204 151.9252 277° West 350 403 13,700 -1,837 Descending FlightAware ADS-B
Sun 06:15:01 PM -34.0119 151.8415 277° West 341 392 12,400 -1,784 Descending FlightAware ADS-B
Sun 06:15:31 PM -34.0062 151.7846 277° West 337 388 11,500 -2,182 Descending Aus ATC (RADAR)
Sun 06:15:34 PM -34.0058 151.7800 277° West 337 388 11,200 -1,886 Descending FlightAware ADS-B
Sun 06:16:06 PM -33.9994 151.7202 277° West 332 382 10,400 -1,946 Descending Aus ATC (RADAR)
Sun 06:16:11 PM -33.9986 151.7114 277° West 336 387 10,000 -1,714 Descending FlightAware ADS-B
Sun 06:16:27 PM -33.9955 151.6811 277° West 325 374 9,800 -375 Descending FlightAware ADS-B
Sun 06:16:43 PM -33.9928 151.6529 277° West 311 358 9,800 -545 Level FlightAware ADS-B
Sun 06:17:00 PM -33.9901 151.6250 277° West 303 349 9,500 -1,263 Descending FlightAware ADS-B
Sun 06:17:21 PM -33.9863 151.5894 277° West 300 345 9,000 -1,297 Descending FlightAware ADS-B
Sun 06:17:37 PM -33.9835 151.5635 278° West 296 341 8,700 -973 Descending FlightAware ADS-B
Sun 06:17:58 PM -33.9804 151.5350 277° West 297 342 8,400 -811 Descending FlightAware ADS-B
Sun 06:18:14 PM -33.9773 151.5034 277° West 294 338 8,200 -774 Descending FlightAware ADS-B
Sun 06:18:29 PM -33.9749 151.4788 277° West 287 330 8,000 -800 Descending FlightAware ADS-B
Sun 06:18:44 PM -33.9730 151.4608 277° West 283 326 7,800 -857 Descending FlightAware ADS-B
Sun 06:19:04 PM -33.9697 151.4322 278° West 280 322 7,500 -750 Descending FlightAware ADS-B
Sun 06:19:24 PM -33.9651 151.3944 278° West 280 322 7,300 -686 Descending FlightAware ADS-B
Sun 06:19:39 PM -33.9623 151.3776 281° West 280 322 7,100 -600 Descending FlightAware ADS-B
Sun 06:19:54 PM -33.9559 151.3484 285° West 283 326 7,000 -545 Descending FlightAware ADS-B
Sun 06:20:01 PM -33.9530 151.3379 288° West 284 327 6,900 -571 Descending FlightAware ADS-B
Sun 06:20:15 PM -33.9433 151.3211 305° West 277 319 6,800 -500 Descending FlightAware ADS-B
Sun 06:20:25 PM -33.9328 151.3125 326° Northwest 271 312 6,700 -947 Descending FlightAware ADS-B
Sun 06:20:34 PM -33.9216 151.3082 342° North 268 308 6,500 -1,200 Descending FlightAware ADS-B
Sun 06:20:45 PM -33.9087 151.3053 349° North 269 310 6,300 -1,059 Descending FlightAware ADS-B
Sun 06:21:08 PM -33.8799 151.2994 350° North 271 312 5,900 -837 Descending FlightAware ADS-B
Sun 06:21:28 PM -33.8552 151.2933 348° North 276 318 5,700 -732 Descending FlightAware ADS-B
Sun 06:21:49 PM -33.8292 151.2872 349° North 276 318 5,400 -878 Descending FlightAware ADS-B
Sun 06:22:09 PM -33.8091 151.2824 349° North 274 315 5,100 -923 Descending FlightAware ADS-B
Sun 06:22:28 PM -33.7803 151.2751 348° North 268 308 4,800 -977 Descending FlightAware ADS-B
Sun 06:22:52 PM -33.7512 151.2677 348° North 259 298 4,400 -698 Descending FlightAware ADS-B
Sun 06:23:11 PM -33.7362 151.2635 347° North 257 296 4,300 -615 Descending FlightAware ADS-B
Sun 06:23:31 PM -33.7095 151.2518 340° North 257 296 4,000 -581 Descending FlightAware ADS-B
Sun 06:23:42 PM -33.7000 151.2382 310° West 255 293 4,000 -286 Level FlightAware ADS-B
Sun 06:23:52 PM -33.6968 151.2289 292° West 251 289 3,900 -429 Descending FlightAware ADS-B
Sun 06:24:10 PM -33.7000 151.2382 112° Southeast 249 287 3,800 -353 Descending FlightAware ADS-B
Sun 06:24:26 PM -33.6921 151.1820 279° West 236 272 3,700 -462 Descending FlightAware ADS-B
Sun 06:24:36 PM -33.6960 151.1669 253° West 225 259 3,600 -300 Descending FlightAware ADS-B
Sun 06:24:46 PM -33.7019 151.1584 230° Southwest 217 250 3,600 -300 Level FlightAware ADS-B
Sun 06:24:56 PM -33.7108 151.1524 210° Southwest 206 237 3,500 -146 Descending FlightAware ADS-B
Sun 06:25:27 PM -33.7370 151.1417 199° South 205 236 3,500 -143 Level FlightAware ADS-B
Sun 06:25:38 PM -33.7483 151.1396 189° South 189 217 3,400 -194 Descending FlightAware ADS-B
Sun 06:25:58 PM -33.7623 151.1407 176° South 174 200 3,400 -300 Level FlightAware ADS-B
Sun 06:26:18 PM -33.7803 151.1439 172° South 170 196 3,200 -600 Descending FlightAware ADS-B
Sun 06:26:38 PM -33.7954 151.1480 167° South 170 196 3,000 -732 Descending FlightAware ADS-B
Sun 06:26:59 PM -33.8120 151.1526 167° South 167 192 2,700 -947 Descending FlightAware ADS-B
Sun 06:27:16 PM -33.8165 151.1539 168° South 165 190 2,400 -857 Descending FlightAware ADS-B
Sun 06:27:41 PM -33.8422 151.1604 168° South 164 189 2,100 -857 Descending FlightAware ADS-B
Sun 06:28:12 PM -33.8657 151.1664 168° South 148 170 1,600 -824 Descending FlightAware ADS-B
Sun 06:28:32 PM -33.8775 151.1696 167° South 129 148 1,400 -769 Descending FlightAware ADS-B
Sun 06:28:51 PM -33.8825 151.1709 168° South 121 139 1,100 -706 Descending FlightAware ADS-B
Sun 06:29:23 PM -33.9062 151.1770 168° South 132 152 800 -679 Descending FlightAware ADS-B
Sun 06:29:44 PM -33.9196 151.1806 168° South 133 153 500 -857 Descending FlightAware ADS-B
Sun 06:30:28 PM -33.9450 151.1870 168° South 117 135 -682 Descending FlightAware ADS-B
Sun 06:30:48 PM -33.9570 151.1900 168° South 120 138  Level FlightAware ADS-B

Login

Don't have an account? Register now (free) for customized features, flight alerts, and more!